Time,TemperatureF,DewpointF,PressureIn,WindDirection,WindDirectionDegrees,WindSpeedMPH,WindSpeedGustMPH,Humidity,HourlyPrecipIn,Conditions,Clouds,dailyrainin,SoftwareType,DateUTC
2013-08-31 00:01:00,65.0,65.0,29.95,SSE,164,1.0,3.0,100,0.00,,---,0.00,VWS V14.01,2013-08-31 04:01:00,
2013-08-31 00:06:00,64.9,64.9,29.95,SSE,164,2.0,2.0,100,0.00,,---,0.00,VWS V14.01,2013-08-31 04:06:00,
2013-08-31 00:11:00,64.8,64.8,29.94,SSE,162,2.0,3.0,100,0.00,,---,0.00,VWS V14.01,2013-08-31 04:11:00,
2013-08-31 00:16:00,64.7,64.7,29.94,SSE,166,3.0,4.0,100,0.00,,---,0.00,VWS V14.01,2013-08-31 04:16:00,
2013-08-31 00:21:00,64.7,64.7,29.94,SSE,166,4.0,4.0,100,0.00,,---,0.00,VWS V14.01,2013-08-31 04:21:00,
2013-08-31 00:26:00,64.7,64.7,29.94,ESE,122,2.0,3.0,100,0.00,,---,0.00,VWS V14.01,2013-08-31 04:26:00,
2013-08-31 00:31:00,64.7,64.7,29.94,SSE,153,3.0,3.0,100,0.00,,---,0.00,VWS V14.01,2013-08-31 04:31:00,
2013-08-31 00:36:00,64.7,64.7,29.94,SE,140,3.0,3.0,100,0.00,,---,0.00,VWS V14.01,2013-08-31 04:36:00,
2013-08-31 00:41:00,64.7,64.7,29.94,SSE,153,1.0,1.0,100,0.00,,---,0.00,VWS V14.01,2013-08-31 04:41:00,
2013-08-31 00:46:00,64.7,64.7,29.94,SE,131,2.0,3.0,100,0.00,,---,0.00,VWS V14.01,2013-08-31 04:46:00,
2013-08-31 00:51:00,64.7,64.7,29.94,SE,131,0.0,1.0,100,0.00,,---,0.00,VWS V14.01,2013-08-31 04:51:00,
2013-08-31 00:56:00,64.7,64.7,29.94,SE,131,0.0,2.0,100,0.00,,---,0.00,VWS V14.01,2013-08-31 04:56:00,
2013-08-31 01:01:00,64.7,64.7,29.94,SE,146,0.0,3.0,100,0.00,,---,0.00,VWS V14.01,2013-08-31 05:01:00,
2013-08-31 01:06:00,64.7,64.7,29.94,SSE,149,1.0,2.0,100,0.00,,---,0.00,VWS V14.01,2013-08-31 05:06:00,
2013-08-31 01:11:00,64.7,64.7,29.94,SSE,149,0.0,0.0,100,0.00,,---,0.00,VWS V14.01,2013-08-31 05:11:00,
2013-08-31 01:16:00,64.6,64.6,29.94,SE,129,2.0,2.0,100,0.00,,---,0.00,VWS V14.01,2013-08-31 05:16:00,
2013-08-31 01:21:00,64.7,64.7,29.94,SE,133,1.0,3.0,100,0.00,,---,0.00,VWS V14.01,2013-08-31 05:21:00,
2013-08-31 01:26:00,64.6,64.6,29.94,SE,133,1.0,2.0,100,0.00,,---,0.00,VWS V14.01,2013-08-31 05:26:00,
2013-08-31 01:31:00,64.5,64.5,29.94,SE,132,1.0,1.0,100,0.00,,---,0.00,VWS V14.01,2013-08-31 05:31:00,
2013-08-31 01:36:00,64.4,64.4,29.93,SE,136,0.0,0.0,100,0.00,,---,0.00,VWS V14.01,2013-08-31 05:36:00,
2013-08-31 01:41:00,64.5,64.5,29.93,SE,136,0.0,0.0,100,0.00,,---,0.00,VWS V14.01,2013-08-31 05:41:00,
2013-08-31 01:46:00,64.2,64.2,29.93,SSE,164,0.0,0.0,100,0.00,,---,0.00,VWS V14.01,2013-08-31 05:46:00,
2013-08-31 01:51:00,63.9,63.9,29.93,SSE,164,0.0,0.0,100,0.00,,---,0.00,VWS V14.01,2013-08-31 05:51:00,
2013-08-31 01:56:00,63.6,63.6,29.93,SSE,164,0.0,1.0,100,0.00,,---,0.00,VWS V14.01,2013-08-31 05:56:00,
2013-08-31 02:01:00,63.6,63.6,29.93,SSE,164,0.0,0.0,100,0.00,,---,0.00,VWS V14.01,2013-08-31 06:01:00,
2013-08-31 02:06:00,63.8,63.8,29.93,SSE,164,0.0,1.0,100,0.00,,---,0.00,VWS V14.01,2013-08-31 06:06:00,
2013-08-31 02:11:00,63.6,63.6,29.93,SSE,164,0.0,0.0,100,0.00,,---,0.00,VWS V14.01,2013-08-31 06:11:00,
2013-08-31 02:16:00,63.2,63.2,29.93,SSE,164,0.0,0.0,100,0.00,,---,0.00,VWS V14.01,2013-08-31 06:16:00,
2013-08-31 02:21:00,63.2,63.2,29.93,SSE,164,0.0,0.0,100,0.00,,---,0.00,VWS V14.01,2013-08-31 06:21:00,
2013-08-31 02:26:00,63.1,63.1,29.92,SSE,164,0.0,0.0,100,0.00,,---,0.00,VWS V14.01,2013-08-31 06:26:00,
2013-08-31 02:31:00,62.9,62.9,29.93,SSE,164,0.0,0.0,100,0.00,,---,0.00,VWS V14.01,2013-08-31 06:31:00,
2013-08-31 02:36:00,63.2,63.2,29.93,SSE,164,0.0,1.0,100,0.00,,---,0.00,VWS V14.01,2013-08-31 06:36:00,
2013-08-31 02:41:00,63.4,63.4,29.93,SSE,164,0.0,1.0,100,0.00,,---,0.00,VWS V14.01,2013-08-31 06:41:00,
2013-08-31 02:46:00,63.5,63.5,29.93,SSE,164,0.0,1.0,100,0.00,,---,0.00,VWS V14.01,2013-08-31 06:46:00,
2013-08-31 02:51:00,63.5,63.5,29.93,SSE,164,0.0,0.0,100,0.00,,---,0.00,VWS V14.01,2013-08-31 06:51:00,
2013-08-31 02:56:00,63.4,63.4,29.93,SSE,164,0.0,1.0,100,0.00,,---,0.00,VWS V14.01,2013-08-31 06:56:00,
2013-08-31 03:01:00,63.3,63.3,29.93,SSE,164,0.0,2.0,100,0.00,,---,0.00,VWS V14.01,2013-08-31 07:01:00,
2013-08-31 03:06:00,63.7,63.7,29.93,SSE,164,0.0,0.0,100,0.00,,---,0.00,VWS V14.01,2013-08-31 07:06:00,
2013-08-31 03:11:00,63.7,63.7,29.93,SSE,164,0.0,0.0,100,0.00,,---,0.00,VWS V14.01,2013-08-31 07:11:00,
2013-08-31 03:16:00,63.6,63.6,29.93,SSE,164,0.0,1.0,100,0.00,,---,0.00,VWS V14.01,2013-08-31 07:16:00,
2013-08-31 03:21:00,63.6,63.6,29.93,SSE,164,0.0,0.0,100,0.00,,---,0.00,VWS V14.01,2013-08-31 07:21:00,
2013-08-31 03:26:00,63.6,63.6,29.93,SSE,164,0.0,0.0,100,0.00,,---,0.00,VWS V14.01,2013-08-31 07:26:00,
2013-08-31 03:31:00,63.6,63.6,29.93,SSE,164,0.0,0.0,100,0.00,,---,0.00,VWS V14.01,2013-08-31 07:31:00,
2013-08-31 03:36:00,63.4,63.4,29.93,SSE,164,0.0,0.0,100,0.00,,---,0.00,VWS V14.01,2013-08-31 07:36:00,
2013-08-31 03:41:00,63.2,63.2,29.93,SSE,164,0.0,0.0,100,0.00,,---,0.00,VWS V14.01,2013-08-31 07:41:00,
2013-08-31 03:46:00,62.9,62.9,29.92,SSE,164,0.0,1.0,100,0.00,,---,0.00,VWS V14.01,2013-08-31 07:46:00,
2013-08-31 03:51:00,63.0,63.0,29.92,SSE,164,1.0,1.0,100,0.00,,---,0.00,VWS V14.01,2013-08-31 07:51:00,
2013-08-31 03:56:00,63.1,63.1,29.92,SSE,164,0.0,0.0,100,0.00,,---,0.00,VWS V14.01,2013-08-31 07:56:00,
2013-08-31 04:01:00,63.0,63.0,29.92,SSE,164,0.0,0.0,100,0.00,,---,0.00,VWS V14.01,2013-08-31 08:01:00,
2013-08-31 04:06:00,62.8,62.8,29.92,SSE,164,1.0,1.0,100,0.00,,---,0.00,VWS V14.01,2013-08-31 08:06:00,
2013-08-31 04:11:00,62.7,62.7,29.92,SSE,164,2.0,2.0,100,0.00,,---,0.00,VWS V14.01,2013-08-31 08:11:00,
2013-08-31 04:16:00,62.5,62.5,29.92,SSE,166,1.0,2.0,100,0.00,,---,0.00,VWS V14.01,2013-08-31 08:16:00,
2013-08-31 04:21:00,62.4,62.4,29.92,SSE,168,2.0,3.0,100,0.00,,---,0.00,VWS V14.01,2013-08-31 08:21:00,
2013-08-31 04:26:00,62.2,62.2,29.92,South,177,1.0,2.0,100,0.00,,---,0.00,VWS V14.01,2013-08-31 08:26:00,
2013-08-31 04:31:00,62.3,62.3,29.91,WSW,241,2.0,3.0,100,0.00,,---,0.00,VWS V14.01,2013-08-31 08:31:00,
2013-08-31 04:36:00,62.3,62.3,29.91,WSW,246,2.0,2.0,100,0.00,,---,0.00,VWS V14.01,2013-08-31 08:36:00,
2013-08-31 04:41:00,62.1,62.1,29.91,WSW,246,0.0,2.0,100,0.00,,---,0.00,VWS V14.01,2013-08-31 08:41:00,
2013-08-31 04:46:00,62.0,62.0,29.91,WSW,247,1.0,2.0,100,0.00,,---,0.00,VWS V14.01,2013-08-31 08:46:00,
2013-08-31 04:51:00,62.0,62.0,29.91,WSW,247,0.0,1.0,100,0.00,,---,0.00,VWS V14.01,2013-08-31 08:51:00,
2013-08-31 04:56:00,62.0,62.0,29.91,WSW,247,2.0,2.0,100,0.00,,---,0.00,VWS V14.01,2013-08-31 08:56:00,
2013-08-31 05:01:00,62.1,62.1,29.92,WSW,249,2.0,2.0,100,0.00,,---,0.00,VWS V14.01,2013-08-31 09:01:00,
2013-08-31 05:06:00,62.1,62.1,29.92,WSW,253,1.0,3.0,100,0.00,,---,0.00,VWS V14.01,2013-08-31 09:06:00,
2013-08-31 05:11:00,62.1,62.1,29.92,WSW,254,2.0,2.0,100,0.00,,---,0.00,VWS V14.01,2013-08-31 09:11:00,
2013-08-31 05:16:00,62.0,62.0,29.91,West,261,2.0,2.0,100,0.00,,---,0.00,VWS V14.01,2013-08-31 09:16:00,
2013-08-31 05:21:00,62.0,62.0,29.91,West,278,1.0,3.0,100,0.00,,---,0.00,VWS V14.01,2013-08-31 09:21:00,
2013-08-31 05:26:00,62.1,62.1,29.91,West,278,2.0,2.0,100,0.00,,---,0.00,VWS V14.01,2013-08-31 09:26:00,
2013-08-31 05:31:00,62.1,62.1,29.92,West,278,1.0,2.0,100,0.00,,---,0.00,VWS V14.01,2013-08-31 09:31:00,
2013-08-31 05:36:00,61.9,61.9,29.92,West,278,0.0,1.0,100,0.00,,---,0.00,VWS V14.01,2013-08-31 09:36:00,
2013-08-31 05:41:00,61.7,61.7,29.92,West,278,0.0,2.0,100,0.00,,---,0.00,VWS V14.01,2013-08-31 09:41:00,
2013-08-31 05:46:00,61.5,61.5,29.92,West,278,0.0,0.0,100,0.00,,---,0.00,VWS V14.01,2013-08-31 09:46:00,
2013-08-31 05:51:00,61.4,61.4,29.92,West,278,0.0,0.0,100,0.00,,---,0.00,VWS V14.01,2013-08-31 09:51:00,
2013-08-31 05:56:00,61.3,61.3,29.92,West,278,0.0,1.0,100,0.00,,---,0.00,VWS V14.01,2013-08-31 09:56:00,
2013-08-31 06:01:00,61.5,61.5,29.92,West,278,1.0,1.0,100,0.00,,---,0.00,VWS V14.01,2013-08-31 10:01:00,
2013-08-31 06:06:00,61.8,61.8,29.92,West,278,1.0,2.0,100,0.00,,---,0.00,VWS V14.01,2013-08-31 10:06:00,
2013-08-31 06:11:00,62.2,62.2,29.92,West,278,1.0,2.0,100,0.00,,---,0.00,VWS V14.01,2013-08-31 10:11:00,
2013-08-31 06:16:00,62.4,62.4,29.92,West,278,1.0,2.0,100,0.00,,---,0.00,VWS V14.01,2013-08-31 10:16:00,
2013-08-31 06:21:00,62.7,62.7,29.92,West,278,1.0,1.0,100,0.00,,---,0.00,VWS V14.01,2013-08-31 10:21:00,
2013-08-31 06:26:00,62.8,62.8,29.93,West,278,1.0,3.0,100,0.00,,---,0.00,VWS V14.01,2013-08-31 10:26:00,
2013-08-31 06:31:00,62.7,62.7,29.92,West,278,1.0,2.0,100,0.00,,---,0.00,VWS V14.01,2013-08-31 10:31:00,
2013-08-31 06:36:00,62.7,62.7,29.92,West,278,1.0,2.0,100,0.00,,---,0.00,VWS V14.01,2013-08-31 10:36:00,
2013-08-31 06:41:00,62.6,62.6,29.93,West,278,1.0,3.0,100,0.00,,---,0.00,VWS V14.01,2013-08-31 10:41:00,
2013-08-31 06:46:00,62.6,62.6,29.93,West,278,1.0,1.0,100,0.00,,---,0.00,VWS V14.01,2013-08-31 10:46:00,
2013-08-31 06:51:00,62.3,62.3,29.93,West,278,0.0,0.0,100,0.00,,---,0.00,VWS V14.01,2013-08-31 10:51:00,
2013-08-31 06:56:00,62.2,62.2,29.93,West,278,0.0,1.0,100,0.00,,---,0.00,VWS V14.01,2013-08-31 10:56:00,
2013-08-31 07:01:00,62.5,62.5,29.93,West,278,1.0,1.0,100,0.00,,---,0.00,VWS V14.01,2013-08-31 11:01:00,
2013-08-31 07:06:00,62.4,62.4,29.93,West,278,1.0,2.0,100,0.00,,---,0.00,VWS V14.01,2013-08-31 11:06:00,
2013-08-31 07:10:00,62.4,62.4,29.93,West,278,1.0,2.0,100,0.00,,---,0.00,VWS V14.01,2013-08-31 11:10:00,
2013-08-31 07:15:00,62.4,62.4,29.93,West,278,1.0,1.0,100,0.00,,---,0.00,VWS V14.01,2013-08-31 11:15:00,
2013-08-31 07:21:00,62.4,62.4,29.93,West,280,1.0,2.0,100,0.00,,---,0.00,VWS V14.01,2013-08-31 11:21:00,
2013-08-31 07:26:00,62.1,62.1,29.93,West,280,0.0,0.0,100,0.00,,---,0.00,VWS V14.01,2013-08-31 11:26:00,
2013-08-31 07:31:00,62.2,62.2,29.93,NNW,337,1.0,2.0,100,0.00,,---,0.00,VWS V14.01,2013-08-31 11:31:00,
2013-08-31 07:36:00,62.6,62.6,29.93,WNW,288,1.0,1.0,100,0.00,,---,0.00,VWS V14.01,2013-08-31 11:36:00,
2013-08-31 07:40:00,62.7,62.7,29.93,WNW,288,1.0,2.0,100,0.00,,---,0.00,VWS V14.01,2013-08-31 11:40:00,
2013-08-31 07:45:00,63.0,63.0,29.93,WNW,288,0.0,1.0,100,0.00,,---,0.00,VWS V14.01,2013-08-31 11:45:00,
2013-08-31 07:51:00,63.3,63.3,29.94,WNW,288,0.0,1.0,100,0.00,,---,0.00,VWS V14.01,2013-08-31 11:51:00,
2013-08-31 07:55:00,64.0,64.0,29.94,WNW,288,1.0,1.0,100,0.00,,---,0.00,VWS V14.01,2013-08-31 11:55:00,
2013-08-31 08:01:00,64.2,64.2,29.94,WNW,289,2.0,2.0,100,0.00,,---,0.00,VWS V14.01,2013-08-31 12:01:00,
2013-08-31 08:05:00,63.8,63.8,29.94,WNW,289,1.0,1.0,100,0.00,,---,0.00,VWS V14.01,2013-08-31 12:05:00,
2013-08-31 08:10:00,63.8,63.8,29.94,WNW,299,1.0,2.0,100,0.00,,---,0.00,VWS V14.01,2013-08-31 12:10:00,
2013-08-31 08:15:00,63.9,63.9,29.94,WNW,299,1.0,1.0,100,0.00,,---,0.00,VWS V14.01,2013-08-31 12:15:00,
2013-08-31 08:20:00,64.8,64.8,29.94,WNW,301,1.0,1.0,100,0.00,,---,0.00,VWS V14.01,2013-08-31 12:20:00,
2013-08-31 08:25:00,64.4,64.4,29.94,WNW,301,0.0,1.0,100,0.00,,---,0.00,VWS V14.01,2013-08-31 12:25:00,
2013-08-31 08:30:00,64.6,64.6,29.95,NW,314,2.0,2.0,100,0.00,,---,0.00,VWS V14.01,2013-08-31 12:30:00,
2013-08-31 08:35:00,65.0,65.0,29.94,WNW,294,3.0,3.0,100,0.00,,---,0.00,VWS V14.01,2013-08-31 12:35:00,
2013-08-31 08:40:00,65.1,65.1,29.94,WNW,283,0.0,1.0,100,0.00,,---,0.00,VWS V14.01,2013-08-31 12:40:00,
2013-08-31 08:45:00,65.7,65.7,29.94,WNW,284,1.0,2.0,100,0.00,,---,0.00,VWS V14.01,2013-08-31 12:45:00,
2013-08-31 08:50:00,65.5,65.5,29.94,WNW,286,1.0,1.0,100,0.00,,---,0.00,VWS V14.01,2013-08-31 12:50:00,
2013-08-31 08:55:00,65.0,65.0,29.94,WSW,249,0.0,1.0,100,0.00,,---,0.00,VWS V14.01,2013-08-31 12:55:00,
2013-08-31 09:00:00,64.9,64.9,29.94,WNW,284,1.0,2.0,100,0.00,,---,0.00,VWS V14.01,2013-08-31 13:00:00,
2013-08-31 09:05:00,65.4,65.4,29.94,WNW,284,1.0,1.0,100,0.00,,---,0.00,VWS V14.01,2013-08-31 13:05:00,
2013-08-31 09:10:00,66.8,66.8,29.94,NW,305,1.0,2.0,100,0.00,,---,0.00,VWS V14.01,2013-08-31 13:10:00,
2013-08-31 09:15:00,66.8,66.8,29.94,West,272,2.0,2.0,100,0.00,,---,0.00,VWS V14.01,2013-08-31 13:15:00,
2013-08-31 09:20:00,66.9,66.9,29.94,WSW,257,1.0,2.0,100,0.00,,---,0.00,VWS V14.01,2013-08-31 13:20:00,
2013-08-31 09:25:00,68.1,68.1,29.94,WSW,239,1.0,2.0,100,0.00,,---,0.00,VWS V14.01,2013-08-31 13:25:00,
2013-08-31 09:30:00,67.4,67.4,29.94,NW,314,1.0,1.0,100,0.00,,---,0.00,VWS V14.01,2013-08-31 13:30:00,
2013-08-31 09:35:00,67.1,67.1,29.95,NW,306,2.0,2.0,100,0.00,,---,0.00,VWS V14.01,2013-08-31 13:35:00,
2013-08-31 09:40:00,68.3,68.3,29.95,NW,307,1.0,1.0,100,0.00,,---,0.00,VWS V14.01,2013-08-31 13:40:00,
2013-08-31 09:45:00,68.5,68.2,29.95,West,264,2.0,2.0,99,0.00,,---,0.00,VWS V14.01,2013-08-31 13:45:00,
2013-08-31 09:50:00,68.8,68.5,29.95,East,86,1.0,2.0,99,0.00,,---,0.00,VWS V14.01,2013-08-31 13:50:00,
2013-08-31 09:55:00,68.9,67.7,29.95,WSW,253,1.0,2.0,96,0.00,,---,0.00,VWS V14.01,2013-08-31 13:55:00,
2013-08-31 10:00:00,67.9,67.0,29.95,NW,305,1.0,1.0,97,0.00,,---,0.00,VWS V14.01,2013-08-31 14:00:00,
2013-08-31 10:05:00,67.6,67.0,29.95,WSW,245,2.0,2.0,98,0.00,,---,0.00,VWS V14.01,2013-08-31 14:05:00,
2013-08-31 10:10:00,68.5,68.2,29.95,WNW,291,0.0,2.0,99,0.00,,---,0.00,VWS V14.01,2013-08-31 14:10:00,
2013-08-31 10:15:00,68.4,67.5,29.94,WNW,284,2.0,2.0,97,0.00,,---,0.00,VWS V14.01,2013-08-31 14:15:00,
2013-08-31 10:20:00,68.5,68.2,29.94,WNW,303,1.0,2.0,99,0.00,,---,0.00,VWS V14.01,2013-08-31 14:20:00,
2013-08-31 10:25:00,68.6,67.4,29.94,West,277,0.0,1.0,96,0.00,,---,0.00,VWS V14.01,2013-08-31 14:25:00,
2013-08-31 10:30:00,69.5,68.6,29.94,WSW,256,1.0,1.0,97,0.00,,---,0.00,VWS V14.01,2013-08-31 14:30:00,
2013-08-31 10:35:00,71.0,69.8,29.94,NW,305,1.0,1.0,96,0.00,,---,0.00,VWS V14.01,2013-08-31 14:35:00,
2013-08-31 10:40:00,71.5,69.7,29.95,NW,304,0.0,2.0,94,0.00,,---,0.00,VWS V14.01,2013-08-31 14:40:00,
2013-08-31 10:45:00,71.8,69.3,29.94,NW,304,1.0,2.0,92,0.00,,---,0.00,VWS V14.01,2013-08-31 14:45:00,
2013-08-31 10:50:00,72.9,70.1,29.94,WNW,295,1.0,2.0,91,0.00,,---,0.00,VWS V14.01,2013-08-31 14:50:00,
2013-08-31 10:55:00,73.6,69.8,29.94,WNW,295,0.0,1.0,88,0.00,,---,0.00,VWS V14.01,2013-08-31 14:55:00,
2013-08-31 11:00:00,74.1,71.0,29.94,WNW,294,0.0,0.0,90,0.00,,---,0.00,VWS V14.01,2013-08-31 15:00:00,
2013-08-31 11:05:00,74.3,70.5,29.94,WNW,294,0.0,0.0,88,0.00,,---,0.00,VWS V14.01,2013-08-31 15:05:00,
2013-08-31 11:10:00,72.8,69.4,29.94,WNW,294,0.0,1.0,89,0.00,,---,0.00,VWS V14.01,2013-08-31 15:10:00,
2013-08-31 11:15:00,72.1,69.0,29.95,WNW,294,0.0,0.0,90,0.00,,---,0.00,VWS V14.01,2013-08-31 15:15:00,
2013-08-31 11:20:00,72.9,69.1,29.95,WNW,294,0.0,0.0,88,0.00,,---,0.00,VWS V14.01,2013-08-31 15:20:00,
2013-08-31 11:25:00,72.2,69.1,29.95,WNW,294,0.0,1.0,90,0.00,,---,0.00,VWS V14.01,2013-08-31 15:25:00,
2013-08-31 11:30:00,71.7,68.3,29.95,WNW,290,2.0,2.0,89,0.00,,---,0.00,VWS V14.01,2013-08-31 15:30:00,
2013-08-31 11:35:00,71.3,68.5,29.94,WNW,289,0.0,1.0,91,0.00,,---,0.00,VWS V14.01,2013-08-31 15:35:00,
2013-08-31 11:40:00,72.9,70.8,29.94,WNW,289,0.0,0.0,93,0.00,,---,0.00,VWS V14.01,2013-08-31 15:40:00,
2013-08-31 11:45:00,73.7,69.3,29.94,WNW,289,0.0,2.0,86,0.00,,---,0.00,VWS V14.01,2013-08-31 15:45:00,
2013-08-31 11:50:00,72.5,68.4,29.94,WNW,289,0.0,1.0,87,0.00,,---,0.00,VWS V14.01,2013-08-31 15:50:00,
2013-08-31 11:55:00,72.5,70.1,29.94,WNW,289,1.0,2.0,92,0.00,,---,0.00,VWS V14.01,2013-08-31 15:55:00,
2013-08-31 12:00:00,72.2,68.4,29.94,NW,306,1.0,1.0,88,0.00,,---,0.00,VWS V14.01,2013-08-31 16:00:00,
2013-08-31 12:05:00,71.5,68.7,29.94,NW,306,0.0,1.0,91,0.00,,---,0.00,VWS V14.01,2013-08-31 16:05:00,
2013-08-31 12:10:00,71.1,68.7,29.94,NW,306,0.0,1.0,92,0.00,,---,0.00,VWS V14.01,2013-08-31 16:10:00,
2013-08-31 12:15:00,72.1,70.6,29.94,NW,306,1.0,1.0,95,0.00,,---,0.00,VWS V14.01,2013-08-31 16:15:00,
2013-08-31 12:20:00,74.8,71.7,29.94,West,268,1.0,1.0,90,0.00,,---,0.00,VWS V14.01,2013-08-31 16:20:00,
2013-08-31 12:25:00,75.9,71.1,29.94,WSW,245,1.0,1.0,85,0.00,,---,0.00,VWS V14.01,2013-08-31 16:25:00,
2013-08-31 12:30:00,73.4,68.3,29.93,WSW,245,0.0,1.0,84,0.00,,---,0.00,VWS V14.01,2013-08-31 16:30:00,
2013-08-31 12:35:00,72.8,70.0,29.93,WSW,245,0.0,1.0,91,0.00,,---,0.00,VWS V14.01,2013-08-31 16:35:00,
2013-08-31 12:40:00,74.6,69.1,29.93,NW,309,0.0,1.0,83,0.00,,---,0.00,VWS V14.01,2013-08-31 16:40:00,
2013-08-31 12:45:00,72.9,68.8,29.93,NW,309,1.0,1.0,87,0.00,,---,0.00,VWS V14.01,2013-08-31 16:45:00,
2013-08-31 12:50:00,71.9,69.1,29.93,NW,309,0.0,0.0,91,0.00,,---,0.00,VWS V14.01,2013-08-31 16:50:00,
2013-08-31 12:55:00,73.6,71.8,29.93,NW,309,1.0,1.0,94,0.00,,---,0.00,VWS V14.01,2013-08-31 16:55:00,
2013-08-31 13:00:00,75.0,70.5,29.93,NW,308,0.0,2.0,86,0.00,,---,0.00,VWS V14.01,2013-08-31 17:00:00,
2013-08-31 13:05:00,75.2,69.3,29.93,WNW,302,2.0,3.0,82,0.00,,---,0.00,VWS V14.01,2013-08-31 17:05:00,
2013-08-31 13:10:00,74.3,69.8,29.92,WNW,295,1.0,2.0,86,0.00,,---,0.00,VWS V14.01,2013-08-31 17:10:00,
2013-08-31 13:15:00,76.0,71.9,29.92,WNW,295,0.0,2.0,87,0.00,,---,0.00,VWS V14.01,2013-08-31 17:15:00,
2013-08-31 13:20:00,76.4,68.7,29.92,WNW,286,0.0,2.0,77,0.00,,---,0.00,VWS V14.01,2013-08-31 17:20:00,
2013-08-31 13:25:00,74.2,69.8,29.92,NW,314,0.0,1.0,86,0.00,,---,0.00,VWS V14.01,2013-08-31 17:25:00,
2013-08-31 13:30:00,73.0,69.2,29.92,WNW,291,0.0,2.0,88,0.00,,---,0.00,VWS V14.01,2013-08-31 17:30:00,
2013-08-31 13:35:00,71.5,67.1,29.92,SSW,203,3.0,3.0,86,0.00,,---,0.00,VWS V14.01,2013-08-31 17:35:00,
2013-08-31 13:40:00,69.4,65.7,29.92,NW,326,1.0,3.0,88,0.00,,---,0.00,VWS V14.01,2013-08-31 17:40:00,
2013-08-31 13:45:00,68.0,65.0,29.91,West,261,2.0,6.0,90,0.00,,---,0.00,VWS V14.01,2013-08-31 17:45:00,
2013-08-31 13:50:00,68.0,65.9,29.91,WNW,297,2.0,6.0,93,0.00,,---,0.00,VWS V14.01,2013-08-31 17:50:00,
2013-08-31 13:55:00,69.3,66.2,29.90,WNW,293,2.0,3.0,90,0.00,,---,0.00,VWS V14.01,2013-08-31 17:55:00,
2013-08-31 14:00:00,72.8,67.7,29.90,NW,316,2.0,3.0,84,0.00,,---,0.00,VWS V14.01,2013-08-31 18:00:00,
2013-08-31 14:05:00,74.3,67.7,29.90,NW,314,0.0,1.0,80,0.00,,---,0.00,VWS V14.01,2013-08-31 18:05:00,
2013-08-31 14:10:00,74.6,67.3,29.90,NW,315,0.0,1.0,78,0.00,,---,0.00,VWS V14.01,2013-08-31 18:10:00,
2013-08-31 14:15:00,74.9,67.2,29.91,NW,304,1.0,1.0,77,0.00,,---,0.00,VWS V14.01,2013-08-31 18:15:00,
2013-08-31 14:20:00,75.0,68.8,29.91,NW,308,1.0,2.0,81,0.00,,---,0.00,VWS V14.01,2013-08-31 18:20:00,
2013-08-31 14:25:00,75.0,65.8,29.90,West,278,1.0,2.0,73,0.00,,---,0.00,VWS V14.01,2013-08-31 18:25:00,
2013-08-31 14:30:00,75.0,66.9,29.90,West,278,1.0,2.0,76,0.00,,---,0.00,VWS V14.01,2013-08-31 18:30:00,
2013-08-31 14:35:00,75.9,68.2,29.90,WNW,299,1.0,1.0,77,0.00,,---,0.00,VWS V14.01,2013-08-31 18:35:00,
2013-08-31 14:40:00,76.4,68.3,29.90,NNW,335,0.0,1.0,76,0.00,,---,0.00,VWS V14.01,2013-08-31 18:40:00,
2013-08-31 14:45:00,76.1,68.0,29.90,WNW,303,1.0,3.0,76,0.00,,---,0.00,VWS V14.01,2013-08-31 18:45:00,
2013-08-31 14:50:00,76.5,69.9,29.90,NW,311,0.0,1.0,80,0.00,,---,0.00,VWS V14.01,2013-08-31 18:50:00,
2013-08-31 14:55:00,75.7,68.0,29.90,NNE,20,0.0,2.0,77,0.00,,---,0.00,VWS V14.01,2013-08-31 18:55:00,
2013-08-31 15:00:00,75.9,67.8,29.90,WSW,241,1.0,4.0,76,0.00,,---,0.00,VWS V14.01,2013-08-31 19:00:00,
2013-08-31 15:05:00,76.1,70.6,29.89,East,91,0.0,1.0,83,0.00,,---,0.00,VWS V14.01,2013-08-31 19:05:00,
2013-08-31 15:10:00,75.6,68.3,29.89,East,87,0.0,1.0,78,0.00,,---,0.00,VWS V14.01,2013-08-31 19:10:00,
2013-08-31 15:15:00,75.6,68.6,29.89,SSE,149,1.0,1.0,79,0.00,,---,0.00,VWS V14.01,2013-08-31 19:15:00,
2013-08-31 15:20:00,75.4,67.7,29.89,SSE,151,0.0,0.0,77,0.00,,---,0.00,VWS V14.01,2013-08-31 19:20:00,
2013-08-31 15:25:00,73.8,69.3,29.88,SSE,148,0.0,3.0,86,0.00,,---,0.00,VWS V14.01,2013-08-31 19:25:00,
2013-08-31 15:30:00,73.6,69.5,29.87,South,178,6.0,6.0,87,0.00,,---,0.00,VWS V14.01,2013-08-31 19:30:00,
2013-08-31 15:35:00,73.1,70.0,29.87,South,178,1.0,3.0,90,0.00,,---,0.00,VWS V14.01,2013-08-31 19:35:00,
2013-08-31 15:40:00,73.1,69.7,29.87,ESE,117,2.0,3.0,89,0.00,,---,0.00,VWS V14.01,2013-08-31 19:40:00,
2013-08-31 15:45:00,72.9,68.8,29.87,East,95,3.0,5.0,87,0.00,,---,0.00,VWS V14.01,2013-08-31 19:45:00,
2013-08-31 15:50:00,72.8,69.4,29.87,ESE,116,0.0,2.0,89,0.00,,---,0.00,VWS V14.01,2013-08-31 19:50:00,
2013-08-31 15:55:00,72.2,68.1,29.87,SE,127,1.0,3.0,87,0.00,,---,0.00,VWS V14.01,2013-08-31 19:55:00,
2013-08-31 16:00:00,73.0,68.9,29.88,SSE,149,2.0,3.0,87,0.00,,---,0.00,VWS V14.01,2013-08-31 20:00:00,
2013-08-31 16:05:00,72.4,68.3,29.87,SE,129,1.0,2.0,87,0.00,,---,0.00,VWS V14.01,2013-08-31 20:05:00,
2013-08-31 16:10:00,71.8,68.1,29.88,SE,133,2.0,3.0,88,0.00,,---,0.00,VWS V14.01,2013-08-31 20:10:00,
2013-08-31 16:15:00,71.0,67.6,29.87,ESE,118,1.0,3.0,89,0.00,,---,0.00,VWS V14.01,2013-08-31 20:15:00,
2013-08-31 16:20:00,70.6,68.2,29.88,SSE,167,5.0,6.0,92,0.00,,---,0.00,VWS V14.01,2013-08-31 20:20:00,
2013-08-31 16:25:00,70.0,67.3,29.88,SSE,160,5.0,5.0,91,0.00,,---,0.00,VWS V14.01,2013-08-31 20:25:00,
2013-08-31 16:30:00,69.2,66.8,29.88,South,171,3.0,3.0,92,0.00,,---,0.00,VWS V14.01,2013-08-31 20:30:00,
2013-08-31 16:35:00,68.2,66.1,29.89,SSE,162,3.0,5.0,93,0.00,,---,0.00,VWS V14.01,2013-08-31 20:35:00,
2013-08-31 16:40:00,67.7,65.6,29.89,SE,143,4.0,5.0,93,0.00,,---,0.00,VWS V14.01,2013-08-31 20:40:00,
2013-08-31 16:45:00,67.7,66.2,29.89,ESE,122,6.0,8.0,95,0.00,,---,0.00,VWS V14.01,2013-08-31 20:45:00,
2013-08-31 16:50:00,67.8,66.0,29.88,SSE,163,4.0,5.0,94,0.00,,---,0.00,VWS V14.01,2013-08-31 20:50:00,
2013-08-31 16:55:00,68.0,66.5,29.89,ESE,123,1.0,5.0,95,0.00,,---,0.00,VWS V14.01,2013-08-31 20:55:00,
2013-08-31 17:00:00,68.1,66.6,29.88,ESE,102,4.0,5.0,95,0.00,,---,0.00,VWS V14.01,2013-08-31 21:00:00,
2013-08-31 17:05:00,68.2,66.4,29.88,ESE,109,2.0,5.0,94,0.00,,---,0.00,VWS V14.01,2013-08-31 21:05:00,
2013-08-31 17:10:00,68.3,66.8,29.88,ESE,120,2.0,5.0,95,0.00,,---,0.00,VWS V14.01,2013-08-31 21:10:00,
2013-08-31 17:15:00,68.6,66.8,29.88,SE,135,4.0,4.0,94,0.00,,---,0.00,VWS V14.01,2013-08-31 21:15:00,
2013-08-31 17:20:00,69.1,67.3,29.88,ESE,120,1.0,3.0,94,0.00,,---,0.00,VWS V14.01,2013-08-31 21:20:00,
2013-08-31 17:25:00,69.3,67.2,29.87,SE,138,2.0,3.0,93,0.00,,---,0.00,VWS V14.01,2013-08-31 21:25:00,
2013-08-31 17:30:00,69.5,67.7,29.87,SE,136,3.0,5.0,94,0.00,,---,0.00,VWS V14.01,2013-08-31 21:30:00,
2013-08-31 17:35:00,69.7,67.9,29.87,SE,127,2.0,5.0,94,0.00,,---,0.00,VWS V14.01,2013-08-31 21:35:00,
2013-08-31 17:40:00,69.8,67.4,29.88,ESE,116,1.0,7.0,92,0.00,,---,0.00,VWS V14.01,2013-08-31 21:40:00,
2013-08-31 17:45:00,69.0,66.9,29.88,ESE,114,5.0,5.0,93,0.00,,---,0.00,VWS V14.01,2013-08-31 21:45:00,
2013-08-31 17:50:00,68.7,66.9,29.88,ESE,122,6.0,6.0,94,0.00,,---,0.00,VWS V14.01,2013-08-31 21:50:00,
2013-08-31 17:55:00,68.4,66.6,29.88,ESE,112,5.0,5.0,94,0.00,,---,0.00,VWS V14.01,2013-08-31 21:55:00,
2013-08-31 18:00:00,68.0,66.2,29.88,ESE,117,2.0,6.0,94,0.00,,---,0.00,VWS V14.01,2013-08-31 22:00:00,
2013-08-31 18:05:00,67.8,66.0,29.88,ESE,116,2.0,5.0,94,0.00,,---,0.00,VWS V14.01,2013-08-31 22:05:00,
2013-08-31 18:10:00,67.6,66.1,29.88,ESE,118,5.0,6.0,95,0.00,,---,0.00,VWS V14.01,2013-08-31 22:10:00,
2013-08-31 18:15:00,67.5,65.7,29.88,ESE,118,3.0,6.0,94,0.00,,---,0.00,VWS V14.01,2013-08-31 22:15:00,
2013-08-31 18:20:00,67.4,65.6,29.88,SE,124,2.0,5.0,94,0.00,,---,0.00,VWS V14.01,2013-08-31 22:20:00,
2013-08-31 18:25:00,67.4,65.9,29.89,SE,131,2.0,5.0,95,0.00,,---,0.00,VWS V14.01,2013-08-31 22:25:00,
2013-08-31 18:30:00,67.4,65.9,29.89,ESE,118,2.0,3.0,95,0.00,,---,0.00,VWS V14.01,2013-08-31 22:30:00,
2013-08-31 18:35:00,67.3,65.8,29.89,SE,143,2.0,4.0,95,0.00,,---,0.00,VWS V14.01,2013-08-31 22:35:00,
2013-08-31 18:40:00,67.2,65.7,29.88,SE,131,3.0,3.0,95,0.00,,---,0.00,VWS V14.01,2013-08-31 22:40:00,
2013-08-31 18:45:00,67.3,65.8,29.88,SE,124,2.0,2.0,95,0.00,,---,0.00,VWS V14.01,2013-08-31 22:45:00,
2013-08-31 18:50:00,67.4,65.9,29.88,SE,124,1.0,2.0,95,0.00,,---,0.00,VWS V14.01,2013-08-31 22:50:00,
2013-08-31 18:55:00,67.5,66.3,29.88,SE,124,3.0,3.0,96,0.00,,---,0.00,VWS V14.01,2013-08-31 22:55:00,
2013-08-31 19:00:00,67.4,65.9,29.89,ESE,111,2.0,3.0,95,0.00,,---,0.00,VWS V14.01,2013-08-31 23:00:00,
2013-08-31 19:05:00,67.6,65.8,29.89,ESE,120,2.0,3.0,94,0.00,,---,0.00,VWS V14.01,2013-08-31 23:05:00,
2013-08-31 19:10:00,67.5,65.7,29.88,ESE,121,2.0,3.0,94,0.00,,---,0.00,VWS V14.01,2013-08-31 23:10:00,
2013-08-31 19:15:00,67.4,65.6,29.88,ESE,120,1.0,3.0,94,0.00,,---,0.00,VWS V14.01,2013-08-31 23:15:00,
2013-08-31 19:20:00,67.2,65.7,29.88,ESE,120,2.0,5.0,95,0.00,,---,0.00,VWS V14.01,2013-08-31 23:20:00,
2013-08-31 19:25:00,67.0,65.5,29.88,ESE,120,2.0,5.0,95,0.00,,---,0.00,VWS V14.01,2013-08-31 23:25:00,
2013-08-31 19:30:00,66.8,65.3,29.89,ESE,120,3.0,3.0,95,0.00,,---,0.00,VWS V14.01,2013-08-31 23:30:00,
2013-08-31 19:35:00,66.6,65.4,29.88,ESE,120,2.0,3.0,96,0.00,,---,0.00,VWS V14.01,2013-08-31 23:35:00,
2013-08-31 19:40:00,66.5,65.6,29.88,ESE,120,2.0,2.0,97,0.00,,---,0.00,VWS V14.01,2013-08-31 23:40:00,
2013-08-31 19:45:00,66.3,65.4,29.88,ESE,120,0.0,1.0,97,0.00,,---,0.00,VWS V14.01,2013-08-31 23:45:00,
2013-08-31 19:50:00,66.1,64.6,29.89,ESE,120,0.0,0.0,95,0.00,,---,0.00,VWS V14.01,2013-08-31 23:50:00,
2013-08-31 19:55:00,66.2,64.7,29.89,ESE,120,1.0,1.0,95,0.00,,---,0.00,VWS V14.01,2013-08-31 23:55:00,
2013-08-31 20:00:00,65.8,64.6,29.89,ESE,120,1.0,5.0,96,0.00,,---,0.00,VWS V14.01,2013-09-01 00:00:00,
2013-08-31 20:05:00,65.7,64.8,29.89,ESE,120,1.0,2.0,97,0.00,,---,0.00,VWS V14.01,2013-09-01 00:05:00,
2013-08-31 20:10:00,65.9,65.3,29.89,ESE,120,2.0,2.0,98,0.00,,---,0.00,VWS V14.01,2013-09-01 00:10:00,
2013-08-31 20:15:00,65.6,64.7,29.89,ESE,120,1.0,2.0,97,0.00,,---,0.00,VWS V14.01,2013-09-01 00:15:00,
2013-08-31 20:20:00,65.5,64.6,29.90,ESE,120,2.0,2.0,97,0.00,,---,0.00,VWS V14.01,2013-09-01 00:20:00,
2013-08-31 20:25:00,65.3,64.7,29.90,ESE,120,2.0,2.0,98,0.00,,---,0.00,VWS V14.01,2013-09-01 00:25:00,
2013-08-31 20:30:00,65.5,64.9,29.90,ESE,120,2.0,2.0,98,0.00,,---,0.00,VWS V14.01,2013-09-01 00:30:00,
2013-08-31 20:35:00,65.9,64.7,29.91,ESE,120,0.0,1.0,96,0.00,,---,0.00,VWS V14.01,2013-09-01 00:35:00,
2013-08-31 20:40:00,66.1,64.6,29.91,ESE,120,1.0,1.0,95,0.00,,---,0.00,VWS V14.01,2013-09-01 00:40:00,
2013-08-31 20:45:00,66.1,64.6,29.91,ESE,120,0.0,0.0,95,0.00,,---,0.00,VWS V14.01,2013-09-01 00:45:00,
2013-08-31 20:50:00,66.0,63.9,29.91,ESE,120,0.0,0.0,93,0.00,,---,0.00,VWS V14.01,2013-09-01 00:50:00,
2013-08-31 20:55:00,66.4,64.3,29.91,ESE,120,0.0,0.0,93,0.00,,---,0.00,VWS V14.01,2013-09-01 00:55:00,
2013-08-31 21:00:00,66.4,64.6,29.91,ESE,120,1.0,1.0,94,0.00,,---,0.00,VWS V14.01,2013-09-01 01:00:00,
2013-08-31 21:05:00,65.7,64.2,29.91,ESE,120,2.0,5.0,95,0.00,,---,0.00,VWS V14.01,2013-09-01 01:05:00,
2013-08-31 21:10:00,65.2,64.3,29.92,ESE,120,2.0,3.0,97,0.00,,---,0.00,VWS V14.01,2013-09-01 01:10:00,
2013-08-31 21:15:00,65.0,64.4,29.91,ESE,120,0.0,1.0,98,0.00,,---,0.00,VWS V14.01,2013-09-01 01:15:00,
2013-08-31 21:20:00,65.5,64.0,29.92,ESE,120,1.0,1.0,95,0.00,,---,0.00,VWS V14.01,2013-09-01 01:20:00,
2013-08-31 21:25:00,65.5,64.0,29.92,ESE,120,0.0,0.0,95,0.00,,---,0.00,VWS V14.01,2013-09-01 01:25:00,
2013-08-31 21:30:00,65.3,63.8,29.92,ESE,120,0.0,0.0,95,0.00,,---,0.00,VWS V14.01,2013-09-01 01:30:00,
2013-08-31 21:35:00,65.0,63.8,29.92,ESE,120,1.0,1.0,96,0.00,,---,0.00,VWS V14.01,2013-09-01 01:35:00,
2013-08-31 21:40:00,65.4,64.5,29.91,ESE,120,0.0,1.0,97,0.00,,---,0.00,VWS V14.01,2013-09-01 01:40:00,
2013-08-31 21:45:00,65.3,64.4,29.91,ESE,120,0.0,1.0,97,0.00,,---,0.00,VWS V14.01,2013-09-01 01:45:00,
2013-08-31 21:50:00,65.3,64.4,29.91,ESE,120,0.0,2.0,97,0.00,,---,0.00,VWS V14.01,2013-09-01 01:50:00,
2013-08-31 21:55:00,65.6,64.7,29.91,ESE,120,0.0,2.0,97,0.00,,---,0.00,VWS V14.01,2013-09-01 01:55:00,
2013-08-31 22:00:00,65.5,64.6,29.91,ESE,120,0.0,1.0,97,0.00,,---,0.00,VWS V14.01,2013-09-01 02:00:00,
2013-08-31 22:05:00,65.3,64.4,29.91,ESE,120,0.0,1.0,97,0.00,,---,0.00,VWS V14.01,2013-09-01 02:05:00,
2013-08-31 22:10:00,64.9,64.0,29.91,ESE,120,1.0,2.0,97,0.00,,---,0.00,VWS V14.01,2013-09-01 02:10:00,
2013-08-31 22:15:00,64.7,64.4,29.92,SSE,147,0.0,1.0,99,0.00,,---,0.00,VWS V14.01,2013-09-01 02:15:00,
2013-08-31 22:20:00,64.6,64.3,29.91,SSE,148,0.0,0.0,99,0.00,,---,0.00,VWS V14.01,2013-09-01 02:20:00,
2013-08-31 22:25:00,64.4,64.1,29.91,SSE,148,0.0,1.0,99,0.00,,---,0.00,VWS V14.01,2013-09-01 02:25:00,
2013-08-31 22:30:00,64.4,64.4,29.91,SSE,148,1.0,1.0,100,0.00,,---,0.00,VWS V14.01,2013-09-01 02:30:00,
2013-08-31 22:35:00,64.3,64.3,29.90,SSE,148,0.0,0.0,100,0.00,,---,0.00,VWS V14.01,2013-09-01 02:35:00,
2013-08-31 22:40:00,64.4,64.4,29.91,SSE,150,0.0,0.0,100,0.00,,---,0.00,VWS V14.01,2013-09-01 02:40:00,
2013-08-31 22:45:00,64.3,64.3,29.90,SSE,150,0.0,0.0,100,0.00,,---,0.00,VWS V14.01,2013-09-01 02:45:00,
2013-08-31 22:50:00,64.2,64.2,29.90,SSE,150,0.0,1.0,100,0.00,,---,0.00,VWS V14.01,2013-09-01 02:50:00,
2013-08-31 22:55:00,64.2,64.2,29.91,SSE,160,1.0,2.0,100,0.00,,---,0.00,VWS V14.01,2013-09-01 02:55:00,
2013-08-31 23:00:00,64.3,64.3,29.91,SSE,160,0.0,1.0,100,0.00,,---,0.00,VWS V14.01,2013-09-01 03:00:00,
2013-08-31 23:05:00,64.3,64.3,29.91,SSE,164,0.0,1.0,100,0.00,,---,0.00,VWS V14.01,2013-09-01 03:05:00,
2013-08-31 23:10:00,64.2,64.2,29.91,SSE,164,0.0,0.0,100,0.00,,---,0.00,VWS V14.01,2013-09-01 03:10:00,
2013-08-31 23:15:00,64.2,64.2,29.91,SSE,164,0.0,2.0,100,0.00,,---,0.00,VWS V14.01,2013-09-01 03:15:00,
2013-08-31 23:20:00,64.2,64.2,29.91,South,179,1.0,3.0,100,0.00,,---,0.00,VWS V14.01,2013-09-01 03:20:00,
2013-08-31 23:25:00,64.2,64.2,29.91,SW,218,2.0,2.0,100,0.00,,---,0.00,VWS V14.01,2013-09-01 03:25:00,
2013-08-31 23:30:00,64.1,64.1,29.91,SW,225,2.0,2.0,100,0.00,,---,0.00,VWS V14.01,2013-09-01 03:30:00,
2013-08-31 23:35:00,64.1,64.1,29.91,WSW,237,0.0,1.0,100,0.00,,---,0.00,VWS V14.01,2013-09-01 03:35:00,
2013-08-31 23:40:00,64.1,64.1,29.91,WSW,237,0.0,1.0,100,0.00,,---,0.00,VWS V14.01,2013-09-01 03:40:00,
2013-08-31 23:45:00,64.1,64.1,29.91,WSW,237,2.0,2.0,100,0.00,,---,0.00,VWS V14.01,2013-09-01 03:45:00,
2013-08-31 23:50:00,64.1,64.1,29.91,WSW,238,2.0,2.0,100,0.00,,---,0.00,VWS V14.01,2013-09-01 03:50:00,
2013-08-31 23:55:00,64.0,64.0,29.90,WSW,238,0.0,1.0,100,0.00,,---,0.00,VWS V14.01,2013-09-01 03:55:00,